»·PEaware :: N3244Y KBUR-KLAS

N3244Y :: KBUR-KLAS

FLIGHT INFORMATION

Flight Status: Arrived
Operator: Privately registered:
United States
More flights under this callsign
Pilot: Jonathan C. (14213)
Aircraft: Unknown
(G58)
More flights by this aircraft type
Origin: KBUR Bob Hope-Burbank
United States
Destination: KLAS McCarran Intl
United States
More flights between these airports :: More routes between these airports
Route: +VNY3 DAG CRESO3
File this flight plan on PilotEdge
Remarks: I-05 RATING
Altitude:
(Current/Filed)
13,000ft
Speed:
(Current/Filed)
195kts
Departed: 08-Mar-17 05:41 PM
Arrived: 08-Mar-17 06:56 PM
Distance/Time
Traveled:
193nm/1:15
Distance/Time
To Go:
Arrived

Flight Plot

Page will automatically refresh every two minutes.


Map Options




Map Legend


Flown Route
Filed Route
Departure Airport
Arrival Airport
Navaid (VOR, NDB)
Fix

Horizontal Profiles

Position Reports

Time Latitude Longitude Heading Altitude Ground
Speed
08-Mar-17 17:03 34.210737 -118.357955 257 755ft 0kts
08-Mar-17 17:04 34.210737 -118.357955 257 755ft 0kts
08-Mar-17 17:05 34.210737 -118.357955 257 755ft 0kts
08-Mar-17 17:06 34.210737 -118.357955 257 755ft 0kts
08-Mar-17 17:07 34.210737 -118.357955 257 755ft 0kts
08-Mar-17 17:08 34.210737 -118.357955 257 755ft 0kts
08-Mar-17 17:09 34.210737 -118.357955 257 755ft 0kts
08-Mar-17 17:10 34.210737 -118.357955 257 755ft 0kts
08-Mar-17 17:11 34.210737 -118.357955 257 755ft 0kts
08-Mar-17 17:12 34.210737 -118.357955 257 755ft 0kts
08-Mar-17 17:13 34.210737 -118.357955 257 755ft 0kts
08-Mar-17 17:14 34.210737 -118.357955 257 755ft 0kts
08-Mar-17 17:15 34.210737 -118.357955 257 755ft 0kts
08-Mar-17 17:16 34.210737 -118.357955 257 755ft 0kts
08-Mar-17 17:17 34.210737 -118.357955 257 755ft 0kts
08-Mar-17 17:18 34.210737 -118.357955 257 755ft 0kts
08-Mar-17 17:19 34.210737 -118.357955 257 755ft 0kts
08-Mar-17 17:20 34.210737 -118.357955 257 755ft 0kts
08-Mar-17 17:21 34.210737 -118.357955 257 755ft 0kts
08-Mar-17 17:22 34.210737 -118.357955 257 755ft 0kts
08-Mar-17 17:23 34.210737 -118.357955 257 755ft 0kts
08-Mar-17 17:24 34.210737 -118.357955 257 755ft 0kts
08-Mar-17 17:25 34.210737 -118.357955 257 755ft 0kts
08-Mar-17 17:26 34.210737 -118.357955 257 755ft 0kts
08-Mar-17 17:27 34.210737 -118.357955 257 755ft 0kts
08-Mar-17 17:28 34.210737 -118.357955 257 755ft 0kts
08-Mar-17 17:29 34.211228 -118.358662 325 758ft 12kts
08-Mar-17 17:30 34.211734 -118.359147 308 760ft 0kts
08-Mar-17 17:31 34.211759 -118.359186 308 761ft 0kts
08-Mar-17 17:32 34.211759 -118.359186 308 761ft 0kts
08-Mar-17 17:33 34.211759 -118.359186 308 761ft 0kts
08-Mar-17 17:34 34.211759 -118.359186 308 761ft 0kts
08-Mar-17 17:35 34.211759 -118.359186 308 761ft 0kts
08-Mar-17 17:37 34.211759 -118.359186 308 761ft 0kts
08-Mar-17 17:39 34.211759 -118.359186 308 761ft 0kts
08-Mar-17 17:40 34.211759 -118.359186 308 761ft 0kts
08-Mar-17 17:41 34.211759 -118.359186 308 761ft 0kts
08-Mar-17 17:42 34.204690 -118.358351 168 764ft 113kts
08-Mar-17 17:43 34.183472 -118.366640 225 2135ft 109kts
08-Mar-17 17:44 34.164442 -118.390925 224 3822ft 102kts
08-Mar-17 17:45 34.175937 -118.417819 347 4875ft 130kts
08-Mar-17 17:46 34.210116 -118.420812 339 6373ft 126kts
08-Mar-17 17:47 34.245128 -118.425004 332 7741ft 126kts
08-Mar-17 17:48 34.279019 -118.430115 335 9067ft 124kts
08-Mar-17 17:49 34.315935 -118.435743 333 10074ft 138kts
08-Mar-17 17:50 34.354457 -118.443331 326 11101ft 138kts
08-Mar-17 17:51 34.392575 -118.444058 42 12135ft 163kts
08-Mar-17 17:52 34.421561 -118.398260 53 12832ft 181kts
08-Mar-17 17:53 34.454325 -118.343540 55 12915ft 224kts
08-Mar-17 17:54 34.490937 -118.284334 50 13116ft 225kts
08-Mar-17 17:55 34.532254 -118.225387 51 13130ft 227kts
08-Mar-17 17:56 34.569038 -118.163169 52 13250ft 226kts
08-Mar-17 17:57 34.606268 -118.101933 52 13349ft 227kts
08-Mar-17 17:58 34.635151 -118.032233 87 13049ft 230kts
08-Mar-17 17:59 34.643444 -117.956491 91 13099ft 223kts
08-Mar-17 18:00 34.651713 -117.880686 91 13097ft 222kts
08-Mar-17 18:01 34.657613 -117.805014 90 13076ft 224kts
08-Mar-17 18:02 34.674084 -117.730988 78 13007ft 235kts
08-Mar-17 18:03 34.694187 -117.656812 75 13084ft 229kts
08-Mar-17 18:04 34.708966 -117.582645 89 13017ft 224kts
08-Mar-17 18:05 34.729759 -117.510083 72 13056ft 230kts
08-Mar-17 18:06 34.749981 -117.437245 81 13067ft 229kts
08-Mar-17 18:07 34.768168 -117.363810 76 13192ft 228kts
08-Mar-17 18:08 34.785612 -117.290760 79 13122ft 234kts
08-Mar-17 18:09 34.805236 -117.214998 77 12948ft 235kts
08-Mar-17 18:10 34.822867 -117.140026 82 12906ft 228kts
08-Mar-17 18:11 34.840569 -117.066675 76 12902ft 228kts
08-Mar-17 18:12 34.860415 -116.993530 75 12926ft 222kts
08-Mar-17 18:13 34.879688 -116.921111 76 12829ft 230kts
08-Mar-17 18:14 34.899050 -116.848675 86 12699ft 235kts
08-Mar-17 18:15 34.915218 -116.774415 80 12710ft 227kts
08-Mar-17 18:16 34.932376 -116.703308 78 13065ft 214kts
08-Mar-17 18:17 34.948756 -116.631894 79 13112ft 221kts
08-Mar-17 18:18 34.969191 -116.559721 66 12963ft 235kts
08-Mar-17 18:19 34.998865 -116.489202 63 12649ft 229kts
08-Mar-17 18:20 35.032815 -116.423562 64 12332ft 227kts
08-Mar-17 18:21 35.059552 -116.355179 69 12086ft 221kts
08-Mar-17 18:22 35.088184 -116.290556 69 11874ft 218kts
08-Mar-17 18:23 35.116037 -116.227194 68 11642ft 217kts
08-Mar-17 18:24 35.146549 -116.163673 58 11427ft 219kts
08-Mar-17 18:25 35.176344 -116.098086 70 11196ft 219kts
08-Mar-17 18:26 35.203487 -116.031302 70 11030ft 219kts
08-Mar-17 18:27 35.230887 -115.965456 60 11008ft 218kts
08-Mar-17 18:28 35.260925 -115.901537 70 10982ft 214kts
08-Mar-17 18:29 35.289695 -115.836969 67 11078ft 207kts
08-Mar-17 18:30 35.319546 -115.775957 47 11039ft 222kts
08-Mar-17 18:31 35.359432 -115.720751 49 11048ft 214kts
08-Mar-17 18:32 35.401651 -115.665681 50 10790ft 225kts
08-Mar-17 18:33 35.442988 -115.608709 53 10742ft 221kts
08-Mar-17 18:34 35.485598 -115.553867 48 10652ft 223kts
08-Mar-17 18:35 35.527370 -115.497878 56 10618ft 221kts
08-Mar-17 18:36 35.567646 -115.441424 47 10671ft 218kts
08-Mar-17 18:37 35.598318 -115.379769 49 10801ft 212kts
08-Mar-17 18:38 35.647723 -115.342171 51 10739ft 221kts
08-Mar-17 18:39 35.687186 -115.285897 54 10862ft 215kts
08-Mar-17 18:40 35.726951 -115.229284 52 10814ft 219kts
08-Mar-17 18:41 35.766755 -115.173297 49 10708ft 223kts
08-Mar-17 18:42 35.809857 -115.116037 46 10257ft 224kts
08-Mar-17 18:43 35.851214 -115.059461 49 9410ft 222kts
08-Mar-17 18:44 35.892068 -115.005013 49 8530ft 213kts
08-Mar-17 18:45 35.931750 -114.952949 50 7733ft 205kts
08-Mar-17 18:46 35.969234 -114.902225 49 7158ft 196kts
08-Mar-17 18:47 36.001805 -114.854566 51 6479ft 173kts
08-Mar-17 18:48 36.031291 -114.808861 27 5776ft 162kts
08-Mar-17 18:49 36.066709 -114.831411 305 5395ft 154kts
08-Mar-17 18:50 36.074025 -114.881009 266 5300ft 143kts
08-Mar-17 18:51 36.071987 -114.928299 269 5148ft 131kts
08-Mar-17 18:52 36.072014 -114.970036 271 4259ft 117kts
08-Mar-17 18:53 36.072581 -115.004413 270 3832ft 100kts
08-Mar-17 18:54 36.073391 -115.040227 270 3567ft 106kts
08-Mar-17 18:55 36.073490 -115.076107 271 2866ft 100kts
08-Mar-17 18:56 36.073597 -115.109745 270 2356ft 93kts
08-Mar-17 18:57 36.073650 -115.135444 268 2065ft 35kts
08-Mar-17 18:58 36.073890 -115.143953 290 2090ft 20kts
08-Mar-17 18:59 36.076418 -115.146580 1 2097ft 25kts
08-Mar-17 19:00 36.078027 -115.151761 270 2111ft 19kts
08-Mar-17 19:01 36.078809 -115.153417 336 2116ft 17kts

Navigation Log

Ident Type
Flight plan parsing failed, navigation log unavailable